Time;durP1;ratioP1;P1;durP2;ratioP2;P2;SDS_P1;SDS_P2;PMS_P1;PMS_P2;Temp;Humidity;BMP_temperature;BMP_pressure;BME280_temperature;BME280_humidity;BME280_pressure;Samples;Min_cycle;Max_cycle;Signal;HPM_P1;HPM_P2
2023/04/23 00:00:02;;;;;;;45.67;23.38;;;7.80;99.90;;;;;;4992602;28;20050;-84
2023/04/23 00:02:52;;;;;;;49.63;24.15;;;7.80;99.90;;;;;;4990815;28;20104;-83
2023/04/23 00:05:38;;;;;;;48.38;24.10;;;7.90;99.90;;;;;;4991323;28;20562;-83
2023/04/23 00:08:26;;;;;;;46.40;24.42;;;7.80;99.90;;;;;;4990610;28;20061;-83
2023/04/23 00:11:13;;;;;;;42.58;23.88;;;7.80;99.90;;;;;;4977000;28;20054;-83
2023/04/23 00:13:59;;;;;;;46.50;24.38;;;7.80;99.90;;;;;;4992368;28;20050;-83
2023/04/23 00:16:45;;;;;;;43.65;23.63;;;7.80;99.90;;;;;;4991542;28;20061;-83
2023/04/23 00:19:31;;;;;;;51.38;26.05;;;7.80;99.90;;;;;;4991225;28;20108;-83
2023/04/23 00:22:19;;;;;;;40.65;23.00;;;7.80;99.90;;;;;;4976718;28;20065;-83
2023/04/23 00:25:05;;;;;;;46.08;22.98;;;7.70;99.90;;;;;;4990324;28;20398;-84
2023/04/23 00:27:51;;;;;;;46.80;23.67;;;7.70;99.90;;;;;;4988444;28;20506;-83
2023/04/23 00:30:37;;;;;;;38.88;21.60;;;7.70;99.90;;;;;;4980230;28;20510;-83
2023/04/23 00:33:24;;;;;;;43.92;24.20;;;7.60;99.90;;;;;;4994167;28;20137;-83
2023/04/23 00:36:10;;;;;;;50.47;23.27;;;7.70;99.90;;;;;;4992211;28;20574;-81
2023/04/23 00:38:57;;;;;;;42.70;24.38;;;7.70;99.90;;;;;;4993631;28;20057;-80
2023/04/23 00:41:43;;;;;;;45.45;22.00;;;7.80;99.90;;;;;;5009987;28;20046;-83
2023/04/23 00:44:30;;;;;;;44.95;23.52;;;7.70;99.90;;;;;;4993544;28;20510;-83
2023/04/23 00:47:16;;;;;;;41.75;23.33;;;7.60;99.90;;;;;;5010755;28;20060;-82
2023/04/23 00:50:03;;;;;;;50.72;23.92;;;7.50;99.90;;;;;;5009901;28;20445;-83
2023/04/23 00:52:49;;;;;;;47.70;24.42;;;7.60;99.90;;;;;;4993895;28;20057;-82
2023/04/23 00:55:35;;;;;;;47.92;24.05;;;7.60;99.90;;;;;;4992731;28;20065;-83
2023/04/23 00:58:22;;;;;;;50.75;26.77;;;7.60;99.90;;;;;;4980244;28;20057;-81
2023/04/23 01:01:08;;;;;;;51.72;25.50;;;7.60;99.90;;;;;;4993771;28;20054;-83
2023/04/23 01:03:55;;;;;;;53.80;25.58;;;7.50;99.90;;;;;;4980710;28;20056;-83
2023/04/23 01:06:42;;;;;;;50.67;25.92;;;7.50;99.90;;;;;;4994292;28;20058;-80
2023/04/23 01:09:28;;;;;;;52.00;27.52;;;7.50;99.90;;;;;;5011801;28;20500;-83
2023/04/23 01:12:16;;;;;;;58.33;29.13;;;7.50;99.90;;;;;;4993280;28;20050;-82
2023/04/23 01:15:03;;;;;;;61.67;30.05;;;7.50;99.90;;;;;;4978833;28;20068;-82
2023/04/23 01:17:49;;;;;;;53.13;27.70;;;7.50;99.90;;;;;;4978705;28;20054;-83
2023/04/23 01:20:36;;;;;;;62.53;29.48;;;7.40;99.90;;;;;;4991750;28;20612;-81
2023/04/23 01:23:22;;;;;;;63.83;29.90;;;7.50;99.90;;;;;;4980285;28;20487;-82
2023/04/23 01:26:09;;;;;;;57.40;28.02;;;7.40;99.90;;;;;;4993034;28;20512;-82
2023/04/23 01:28:56;;;;;;;67.38;30.75;;;7.40;99.90;;;;;;4993054;28;20060;-81
2023/04/23 01:31:43;;;;;;;61.72;28.73;;;7.40;99.90;;;;;;4992801;28;20057;-81
2023/04/23 01:34:30;;;;;;;61.00;28.50;;;7.40;99.90;;;;;;5010857;28;20053;-83
2023/04/23 01:37:17;;;;;;;73.68;29.77;;;7.30;99.90;;;;;;4991222;28;20107;-80
2023/04/23 01:40:04;;;;;;;61.20;29.25;;;7.20;99.90;;;;;;4992933;28;20049;-83
2023/04/23 01:42:51;;;;;;;81.07;30.30;;;7.20;99.90;;;;;;4991637;28;20517;-82
2023/04/23 01:45:37;;;;;;;89.90;31.73;;;7.20;99.90;;;;;;4992230;28;20064;-80
2023/04/23 01:48:24;;;;;;;128.75;34.70;;;7.20;99.90;;;;;;4993051;28;20063;-82
2023/04/23 01:51:10;;;;;;;113.88;32.45;;;7.20;99.90;;;;;;4992395;28;20088;-81
2023/04/23 01:53:56;;;;;;;163.45;35.97;;;7.20;99.90;;;;;;4979813;28;20049;-81
2023/04/23 01:56:42;;;;;;;126.85;34.05;;;7.10;99.90;;;;;;4978570;28;20568;-80
2023/04/23 01:59:28;;;;;;;144.15;36.25;;;7.10;99.90;;;;;;4992803;28;20050;-83
2023/04/23 02:02:15;;;;;;;114.60;34.50;;;7.20;99.90;;;;;;4992249;28;20417;-81
2023/04/23 02:05:03;;;;;;;108.38;36.00;;;7.20;99.90;;;;;;4979649;28;20089;-82
2023/04/23 02:07:51;;;;;;;107.95;35.30;;;7.20;99.90;;;;;;4992726;28;20053;-83
2023/04/23 02:10:37;;;;;;;94.47;35.25;;;7.20;99.90;;;;;;4992974;28;20046;-82
2023/04/23 02:13:23;;;;;;;107.63;36.08;;;7.20;99.90;;;;;;4979016;28;20415;-82
2023/04/23 02:16:09;;;;;;;111.63;38.75;;;7.20;99.90;;;;;;5008964;28;20046;-83
2023/04/23 02:18:56;;;;;;;95.10;35.50;;;7.20;99.90;;;;;;4996125;28;20057;-82
2023/04/23 02:21:42;;;;;;;119.95;38.67;;;7.20;99.90;;;;;;4996287;28;20058;-82
2023/04/23 02:24:28;;;;;;;160.73;40.67;;;7.20;99.90;;;;;;5012765;28;20501;-82
2023/04/23 02:27:14;;;;;;;179.70;44.03;;;7.20;99.90;;;;;;4998991;28;20413;-82
2023/04/23 02:30:01;;;;;;;120.68;39.33;;;7.20;99.90;;;;;;4981622;28;20056;-83
2023/04/23 02:32:47;;;;;;;139.70;40.97;;;7.20;99.90;;;;;;4983851;28;20064;-82
2023/04/23 02:35:38;;;;;;;149.27;46.17;;;7.20;99.90;;;;;;4983424;28;20058;-82
2023/04/23 02:38:24;;;;;;;211.30;51.78;;;7.30;99.90;;;;;;4969708;28;20464;-82
2023/04/23 02:41:11;;;;;;;153.50;47.97;;;7.30;99.90;;;;;;4995410;28;20140;-84
2023/04/23 02:43:57;;;;;;;185.80;50.40;;;7.30;99.90;;;;;;5013084;28;20157;-82
2023/04/23 02:46:43;;;;;;;170.38;47.67;;;7.30;99.90;;;;;;4995493;28;20144;-83
2023/04/23 02:49:29;;;;;;;164.63;46.88;;;7.30;99.90;;;;;;4995930;28;20062;-82
2023/04/23 02:52:15;;;;;;;167.40;50.13;;;7.30;99.90;;;;;;4996090;28;20057;-83
2023/04/23 02:55:04;;;;;;;176.40;49.35;;;7.30;99.90;;;;;;4995194;28;20049;-83
2023/04/23 02:57:50;;;;;;;152.98;47.63;;;7.30;99.90;;;;;;5013893;28;20081;-82
2023/04/23 03:00:36;;;;;;;180.10;48.58;;;7.30;99.90;;;;;;4997609;28;20147;-83
2023/04/23 03:03:25;;;;;;;199.43;49.55;;;7.30;99.90;;;;;;5013751;28;20053;-84
2023/04/23 03:06:11;;;;;;;193.98;49.53;;;7.30;99.90;;;;;;5012055;28;20733;-82
2023/04/23 03:08:57;;;;;;;163.38;49.03;;;7.30;99.90;;;;;;4997281;28;20506;-83
2023/04/23 03:11:43;;;;;;;233.90;55.40;;;7.30;99.90;;;;;;4999473;28;20060;-84
2023/04/23 03:14:29;;;;;;;289.95;59.85;;;7.30;99.90;;;;;;4996136;28;20108;-83
2023/04/23 03:17:15;;;;;;;273.92;56.85;;;7.30;99.90;;;;;;4995541;28;20062;-82
2023/04/23 03:20:02;;;;;;;212.48;52.22;;;7.30;99.90;;;;;;5012418;28;20054;-82
2023/04/23 03:22:48;;;;;;;303.35;60.00;;;7.20;99.90;;;;;;5010822;28;20490;-84
2023/04/23 03:25:34;;;;;;;263.00;58.83;;;7.20;99.90;;;;;;5013024;28;20082;-83
2023/04/23 03:28:20;;;;;;;271.25;57.75;;;7.20;99.90;;;;;;4992056;28;20065;-84
2023/04/23 03:31:06;;;;;;;326.90;63.42;;;7.10;99.90;;;;;;4973559;28;20061;-83
2023/04/23 03:33:52;;;;;;;330.02;59.22;;;7.20;99.90;;;;;;4975081;28;20058;-83
2023/04/23 03:36:38;;;;;;;389.60;71.70;;;7.20;99.90;;;;;;4993028;28;20129;-83
2023/04/23 03:39:24;;;;;;;302.48;57.22;;;7.20;99.90;;;;;;4961858;28;20054;-84
2023/04/23 03:42:10;;;;;;;353.52;59.25;;;7.20;99.90;;;;;;4974464;28;20069;-82
2023/04/23 03:44:57;;;;;;;358.88;63.10;;;7.20;99.90;;;;;;4991973;28;20054;-82
2023/04/23 03:47:43;;;;;;;261.42;51.25;;;7.20;99.90;;;;;;4992555;28;20163;-83
2023/04/23 03:50:30;;;;;;;271.58;56.42;;;7.10;99.90;;;;;;4975331;28;20387;-83
2023/04/23 03:53:16;;;;;;;257.17;57.88;;;7.20;99.90;;;;;;4961211;28;20090;-83
2023/04/23 03:56:02;;;;;;;276.27;58.22;;;7.20;99.90;;;;;;4974901;28;20577;-84
2023/04/23 03:58:48;;;;;;;302.35;62.80;;;7.20;99.90;;;;;;4974389;28;20046;-83
2023/04/23 04:01:35;;;;;;;297.13;60.85;;;7.20;99.90;;;;;;4961198;28;20161;-81
2023/04/23 04:04:21;;;;;;;318.33;65.30;;;7.20;99.90;;;;;;4974936;28;20050;-82
2023/04/23 04:07:07;;;;;;;234.65;59.58;;;7.20;99.90;;;;;;4978027;28;20406;-81
2023/04/23 04:09:53;;;;;;;298.42;67.43;;;7.20;99.90;;;;;;4973517;28;20458;-81
2023/04/23 04:12:44;;;;;;;208.10;57.35;;;7.20;99.90;;;;;;4992393;28;20052;-81
2023/04/23 04:15:31;;;;;;;259.02;63.58;;;7.20;99.90;;;;;;4973177;28;20046;-82
2023/04/23 04:18:19;;;;;;;210.80;60.88;;;7.20;99.90;;;;;;4961547;28;20061;-82
2023/04/23 04:21:05;;;;;;;206.30;60.33;;;7.20;99.90;;;;;;4974894;28;20054;-83
2023/04/23 04:23:52;;;;;;;219.50;62.88;;;7.30;99.90;;;;;;4974806;28;20058;-82
2023/04/23 04:26:39;;;;;;;199.02;59.65;;;7.30;99.90;;;;;;4995927;28;20072;-83
2023/04/23 04:29:25;;;;;;;204.43;64.05;;;7.30;99.90;;;;;;4993370;28;20139;-82
2023/04/23 04:32:12;;;;;;;172.68;55.95;;;7.30;99.90;;;;;;4993483;28;20079;-82
2023/04/23 04:34:58;;;;;;;169.07;56.42;;;7.30;99.90;;;;;;4981073;28;20108;-82
2023/04/23 04:37:44;;;;;;;158.05;55.67;;;7.30;99.90;;;;;;5011402;28;20096;-83
2023/04/23 04:40:30;;;;;;;157.55;55.50;;;7.30;99.90;;;;;;4993259;28;20057;-83
2023/04/23 04:43:17;;;;;;;163.68;57.92;;;7.30;99.90;;;;;;4996839;28;20107;-82
2023/04/23 04:46:04;;;;;;;148.43;57.92;;;7.30;99.90;;;;;;4992279;28;20053;-83
2023/04/23 04:48:50;;;;;;;142.75;56.10;;;7.30;99.90;;;;;;4979970;28;20107;-83
2023/04/23 04:51:37;;;;;;;157.65;56.33;;;7.30;99.90;;;;;;5010420;28;20041;-81
2023/04/23 04:54:23;;;;;;;148.18;58.60;;;7.30;99.90;;;;;;4993023;28;20058;-83
2023/04/23 04:57:09;;;;;;;177.10;58.83;;;7.20;99.90;;;;;;4993139;28;20625;-83
2023/04/23 04:59:56;;;;;;;188.82;61.15;;;7.30;99.90;;;;;;4995384;28;20046;-82
2023/04/23 05:02:42;;;;;;;191.68;67.70;;;7.30;99.90;;;;;;4993991;28;20054;-82
2023/04/23 05:05:29;;;;;;;184.25;62.60;;;7.20;99.90;;;;;;4993140;28;20050;-81
2023/04/23 05:08:20;;;;;;;188.32;62.40;;;7.30;99.90;;;;;;5010115;28;20520;-82
2023/04/23 05:11:06;;;;;;;218.43;68.72;;;7.30;99.90;;;;;;4992366;28;20093;-80
2023/04/23 05:13:52;;;;;;;185.25;65.85;;;7.30;99.90;;;;;;5010373;28;20073;-81
2023/04/23 05:16:38;;;;;;;187.63;65.25;;;7.40;99.90;;;;;;4992834;28;20092;-82
2023/04/23 05:19:25;;;;;;;180.65;63.08;;;7.40;99.90;;;;;;4992959;28;20100;-82
2023/04/23 05:22:11;;;;;;;176.57;65.80;;;7.40;99.90;;;;;;4979251;28;20149;-83
2023/04/23 05:24:57;;;;;;;154.25;59.67;;;7.50;99.90;;;;;;4992932;28;20069;-82
2023/04/23 05:27:43;;;;;;;199.02;69.93;;;7.50;99.90;;;;;;4992484;28;20391;-81
2023/04/23 05:30:29;;;;;;;188.10;66.32;;;7.60;99.90;;;;;;4992245;28;20088;-84
2023/04/23 05:33:15;;;;;;;202.70;68.50;;;7.60;99.90;;;;;;4979823;28;20433;-84
2023/04/23 05:36:02;;;;;;;185.15;64.38;;;7.60;99.90;;;;;;4993973;28;20072;-81
2023/04/23 05:38:48;;;;;;;197.30;73.32;;;7.70;99.90;;;;;;4992618;28;20060;-79
2023/04/23 05:41:34;;;;;;;189.68;68.47;;;7.70;99.90;;;;;;5010802;28;20186;-81
2023/04/23 05:44:20;;;;;;;195.55;67.05;;;7.70;99.90;;;;;;4993865;28;20136;-80
2023/04/23 05:47:07;;;;;;;183.73;66.50;;;7.70;99.90;;;;;;4979029;28;20058;-81
2023/04/23 05:49:56;;;;;;;194.48;66.47;;;7.80;99.90;;;;;;4992342;28;20060;-82
2023/04/23 05:52:42;;;;;;;191.25;69.25;;;7.90;99.90;;;;;;4991523;28;20057;-82
2023/04/23 05:55:28;;;;;;;196.02;69.45;;;8.00;99.90;;;;;;4996739;28;20050;-83
2023/04/23 05:58:14;;;;;;;169.20;66.95;;;8.00;99.90;;;;;;5015098;28;20046;-82
2023/04/23 06:01:01;;;;;;;167.88;65.03;;;8.00;99.90;;;;;;5013882;28;20045;-81
2023/04/23 06:03:49;;;;;;;174.88;65.95;;;8.10;99.90;;;;;;4997054;28;20042;-82
2023/04/23 06:06:35;;;;;;;173.82;66.05;;;8.10;99.90;;;;;;4996833;28;20061;-81
2023/04/23 06:09:21;;;;;;;161.13;62.72;;;8.20;99.90;;;;;;4982698;28;20241;-82
2023/04/23 06:12:07;;;;;;;160.63;63.40;;;8.30;99.90;;;;;;4996506;28;20046;-82
2023/04/23 06:14:53;;;;;;;159.30;62.45;;;8.40;99.90;;;;;;4983199;28;20054;-83
2023/04/23 06:17:40;;;;;;;158.00;62.65;;;8.50;99.90;;;;;;4999906;28;20042;-82
2023/04/23 06:20:26;;;;;;;151.48;61.08;;;8.60;99.90;;;;;;4982796;28;20163;-82
2023/04/23 06:23:12;;;;;;;163.50;62.10;;;8.70;99.90;;;;;;4996942;28;20746;-81
2023/04/23 06:25:59;;;;;;;134.00;58.97;;;8.90;99.90;;;;;;4995821;28;20061;-83
2023/04/23 06:28:45;;;;;;;120.85;55.42;;;8.90;99.90;;;;;;5014322;28;20053;-81
2023/04/23 06:31:32;;;;;;;121.07;54.20;;;9.00;99.90;;;;;;5013770;28;20132;-80
2023/04/23 06:34:18;;;;;;;112.63;53.00;;;9.00;99.90;;;;;;4999450;28;20061;-81
2023/04/23 06:37:04;;;;;;;105.57;51.30;;;9.10;99.90;;;;;;4995299;28;20054;-80
2023/04/23 06:39:50;;;;;;;101.95;48.80;;;9.20;99.90;;;;;;4995473;28;20058;-82
2023/04/23 06:42:36;;;;;;;94.95;45.60;;;9.40;99.90;;;;;;4995640;28;20057;-81
2023/04/23 06:45:22;;;;;;;92.65;46.80;;;9.40;99.90;;;;;;4996775;28;20125;-83
2023/04/23 06:48:08;;;;;;;90.90;45.17;;;9.40;99.90;;;;;;4996482;28;20107;-80
2023/04/23 06:50:57;;;;;;;84.28;44.38;;;9.50;99.90;;;;;;4995326;28;20844;-82
2023/04/23 06:53:43;;;;;;;79.55;39.78;;;9.80;99.90;;;;;;4981086;28;20556;-82
2023/04/23 06:56:29;;;;;;;67.88;38.67;;;10.00;99.90;;;;;;4994388;28;20068;-83
2023/04/23 06:59:15;;;;;;;79.05;42.20;;;10.20;99.90;;;;;;4982422;28;20049;-81
2023/04/23 07:02:01;;;;;;;72.82;39.50;;;10.50;99.90;;;;;;4995732;28;20057;-81
2023/04/23 07:04:47;;;;;;;63.83;36.55;;;10.70;99.90;;;;;;4994487;28;20441;-82
2023/04/23 07:07:36;;;;;;;63.28;36.50;;;10.70;99.90;;;;;;4982686;28;20084;-83
2023/04/23 07:10:22;;;;;;;68.03;37.42;;;10.70;99.90;;;;;;4994505;28;20506;-81
2023/04/23 07:13:08;;;;;;;68.18;39.38;;;10.70;99.90;;;;;;4995400;28;20046;-81
2023/04/23 07:15:54;;;;;;;63.92;35.80;;;10.70;99.90;;;;;;4994751;28;20095;-82
2023/04/23 07:18:40;;;;;;;66.50;37.17;;;10.70;99.90;;;;;;4994275;28;20100;-81
2023/04/23 07:21:27;;;;;;;69.47;38.80;;;10.80;99.90;;;;;;4993813;28;20053;-81
2023/04/23 07:24:14;;;;;;;68.70;37.65;;;11.10;99.90;;;;;;5012877;28;20104;-81
2023/04/23 07:27:00;;;;;;;67.50;38.10;;;11.40;99.90;;;;;;4977862;28;20141;-82
2023/04/23 07:29:46;;;;;;;66.15;37.13;;;11.50;99.90;;;;;;4993791;28;20058;-80
2023/04/23 07:32:33;;;;;;;67.03;38.55;;;11.70;99.90;;;;;;4992632;28;20046;-81
2023/04/23 07:35:19;;;;;;;65.47;37.88;;;11.90;99.90;;;;;;4991972;28;20050;-82
2023/04/23 07:38:05;;;;;;;65.65;38.20;;;12.00;99.90;;;;;;4993201;28;20142;-83
2023/04/23 07:40:51;;;;;;;61.90;36.58;;;12.00;99.90;;;;;;4992399;28;20395;-82
2023/04/23 07:43:37;;;;;;;65.70;38.60;;;12.10;99.90;;;;;;4990575;28;20205;-81
2023/04/23 07:46:23;;;;;;;62.70;36.15;;;12.10;99.90;;;;;;4991613;28;20051;-83
2023/04/23 07:49:09;;;;;;;63.85;37.03;;;12.10;99.90;;;;;;4990965;28;20046;-83
2023/04/23 07:51:56;;;;;;;62.08;37.15;;;12.30;99.90;;;;;;4977395;28;20458;-81
2023/04/23 07:54:42;;;;;;;65.30;37.00;;;12.40;99.90;;;;;;4990962;28;20050;-84
2023/04/23 07:57:28;;;;;;;62.45;35.72;;;12.50;99.90;;;;;;4992771;28;20459;-81
2023/04/23 08:00:15;;;;;;;60.65;34.70;;;12.50;99.90;;;;;;4990915;28;20054;-85
2023/04/23 08:03:01;;;;;;;56.80;35.30;;;12.70;99.90;;;;;;4990748;28;20054;-82
2023/04/23 08:05:47;;;;;;;56.35;33.45;;;12.90;99.90;;;;;;4994633;28;20064;-81
2023/04/23 08:08:33;;;;;;;51.85;32.42;;;13.20;99.90;;;;;;4991801;28;20117;-81
2023/04/23 08:11:19;;;;;;;49.08;32.38;;;13.20;99.90;;;;;;4989980;28;20430;-82
2023/04/23 08:14:05;;;;;;;49.05;31.23;;;13.20;99.90;;;;;;4991074;28;20149;-81
2023/04/23 08:16:51;;;;;;;50.97;30.45;;;13.20;99.90;;;;;;4989358;28;20050;-82
2023/04/23 08:19:37;;;;;;;47.25;29.75;;;13.10;99.90;;;;;;4989694;28;20089;-81
2023/04/23 08:22:23;;;;;;;44.15;27.83;;;13.00;99.90;;;;;;4991909;28;20491;-82
2023/04/23 08:25:11;;;;;;;43.92;27.70;;;13.10;99.90;;;;;;4976880;28;20050;-82
2023/04/23 08:27:58;;;;;;;46.42;28.45;;;13.40;99.90;;;;;;4976786;28;20058;-81
2023/04/23 08:30:44;;;;;;;49.50;30.90;;;13.60;99.90;;;;;;4989983;28;20054;-83
2023/04/23 08:33:31;;;;;;;42.40;25.45;;;13.80;99.90;;;;;;4989994;28;20050;-81
2023/04/23 08:36:17;;;;;;;39.55;25.33;;;14.00;99.90;;;;;;4990688;28;20069;-81
2023/04/23 08:39:04;;;;;;;39.40;23.98;;;14.10;99.90;;;;;;4991685;28;20142;-81
2023/04/23 08:41:54;;;;;;;43.67;24.77;;;14.20;99.90;;;;;;4991425;28;20089;-80
2023/04/23 08:44:42;;;;;;;40.25;23.65;;;14.30;99.90;;;;;;4990615;28;20054;-80
2023/04/23 08:47:29;;;;;;;34.13;20.42;;;14.30;99.90;;;;;;4989809;28;20113;-82
2023/04/23 08:50:18;;;;;;;37.95;21.80;;;14.30;99.90;;;;;;4991147;28;20120;-80
2023/04/23 08:53:05;;;;;;;32.40;20.30;;;14.40;99.90;;;;;;4990024;28;20058;-81
2023/04/23 08:55:52;;;;;;;33.70;18.33;;;14.50;99.90;;;;;;4989697;28;20092;-82
2023/04/23 08:58:40;;;;;;;27.67;17.00;;;14.70;99.90;;;;;;4990092;28;20050;-82
2023/04/23 09:01:26;;;;;;;30.75;17.98;;;15.00;99.90;;;;;;4989400;28;20096;-82
2023/04/23 09:04:15;;;;;;;34.35;19.83;;;14.90;99.90;;;;;;4990294;28;20096;-82
2023/04/23 09:07:03;;;;;;;30.52;18.05;;;15.20;99.90;;;;;;4975800;28;20054;-83
2023/04/23 09:09:49;;;;;;;29.40;18.55;;;15.20;99.90;;;;;;4975361;28;20051;-82
2023/04/23 09:12:36;;;;;;;25.00;16.38;;;15.20;99.90;;;;;;4975937;28;20485;-82
2023/04/23 09:15:22;;;;;;;28.27;16.83;;;15.50;99.90;;;;;;4975386;28;20109;-83
2023/04/23 09:18:09;;;;;;;26.65;17.88;;;15.40;99.90;;;;;;4990722;28;20232;-83
2023/04/23 09:20:55;;;;;;;23.75;15.77;;;15.40;99.90;;;;;;4992146;28;20053;-83
2023/04/23 09:23:42;;;;;;;24.80;17.08;;;15.50;99.90;;;;;;4990729;28;20069;-82
2023/04/23 09:26:28;;;;;;;27.90;15.48;;;15.50;99.90;;;;;;4989172;28;20058;-84
2023/04/23 09:29:22;;;;;;;25.50;14.75;;;15.50;99.90;;;;;;4988726;28;20054;-83
2023/04/23 09:32:09;;;;;;;23.83;13.70;;;15.60;99.90;;;;;;4990939;28;20051;-83
2023/04/23 09:34:56;;;;;;;21.20;12.20;;;15.60;99.90;;;;;;4977029;28;20112;-81
2023/04/23 09:37:47;;;;;;;23.52;12.85;;;15.30;99.90;;;;;;4990746;28;20133;-83
2023/04/23 09:40:33;;;;;;;22.27;14.40;;;15.50;99.90;;;;;;4991484;28;20046;-82
2023/04/23 09:43:19;;;;;;;23.13;12.88;;;15.70;99.90;;;;;;4990152;28;20058;-83
2023/04/23 09:46:05;;;;;;;21.15;12.32;;;15.90;99.90;;;;;;4990734;28;20121;-80
2023/04/23 09:48:55;;;;;;;20.15;12.25;;;16.10;99.90;;;;;;4991175;28;20104;-82
2023/04/23 09:51:44;;;;;;;20.83;11.75;;;16.40;99.90;;;;;;4989116;28;20513;-81
2023/04/23 09:54:31;;;;;;;20.15;12.20;;;16.50;99.90;;;;;;4975941;28;20058;-81
2023/04/23 09:57:17;;;;;;;18.05;10.93;;;16.50;99.90;;;;;;4989157;28;20157;-80
2023/04/23 10:00:18;;;;;;;19.80;10.50;;;16.50;99.90;;;;;;4989444;28;20070;-81
2023/04/23 10:03:06;;;;;;;25.88;10.60;;;16.90;99.90;;;;;;4990332;28;20054;-82
2023/04/23 10:05:55;;;;;;;15.95;9.43;;;17.40;99.90;;;;;;4989734;28;20145;-83
2023/04/23 10:08:41;;;;;;;18.70;9.38;;;17.30;99.90;;;;;;4988931;28;20522;-85
2023/04/23 10:11:27;;;;;;;17.33;10.23;;;17.60;99.90;;;;;;4989249;28;20051;-84
2023/04/23 10:14:13;;;;;;;22.35;11.15;;;17.60;99.90;;;;;;4975848;28;20092;-83
2023/04/23 10:17:02;;;;;;;18.52;10.52;;;17.80;99.90;;;;;;5005117;28;20804;-83
2023/04/23 10:19:50;;;;;;;19.38;9.30;;;18.00;99.90;;;;;;4989689;28;20046;-84
2023/04/23 10:22:38;;;;;;;17.65;9.60;;;18.00;99.90;;;;;;4991103;28;20581;-82
2023/04/23 10:25:25;;;;;;;15.40;8.30;;;17.80;99.90;;;;;;4975740;28;20108;-83
2023/04/23 10:28:13;;;;;;;15.38;7.78;;;17.80;99.90;;;;;;4988300;28;20418;-81
2023/04/23 10:30:59;;;;;;;15.18;7.10;;;17.70;99.90;;;;;;4988671;28;20442;-84
2023/04/23 10:33:49;;;;;;;12.73;6.35;;;17.90;99.90;;;;;;4976286;28;20816;-81
2023/04/23 10:36:36;;;;;;;12.75;6.30;;;18.20;99.90;;;;;;4988830;28;20054;-82
2023/04/23 10:39:33;;;;;;;17.33;6.05;;;18.30;99.90;;;;;;4988586;28;20055;-84
2023/04/23 10:42:21;;;;;;;13.50;6.75;;;18.30;99.90;;;;;;4993070;28;20054;-83
2023/04/23 10:45:19;;;;;;;11.77;5.65;;;18.10;99.90;;;;;;4966113;28;20054;-83
2023/04/23 10:48:05;;;;;;;11.57;5.68;;;17.90;99.90;;;;;;4979181;28;20054;-84
2023/04/23 10:50:58;;;;;;;11.88;6.78;;;18.10;99.90;;;;;;4992728;28;20046;-84
2023/04/23 10:53:44;;;;;;;14.93;7.05;;;18.30;99.90;;;;;;4992944;28;20081;-84
2023/04/23 10:56:31;;;;;;;13.00;5.63;;;18.00;99.90;;;;;;4966032;28;20054;-83
2023/04/23 10:59:21;;;;;;;11.73;5.53;;;18.00;99.90;;;;;;4991724;28;20140;-82
2023/04/23 11:02:12;;;;;;;13.73;6.22;;;17.70;99.90;;;;;;4991309;28;20522;-82
2023/04/23 11:04:58;;;;;;;12.07;5.22;;;17.70;99.90;;;;;;4992519;28;20046;-81
2023/04/23 11:08:03;;;;;;;9.65;5.22;;;17.60;99.90;;;;;;4991670;28;20482;-84
2023/04/23 11:10:57;;;;;;;11.43;4.05;;;17.30;99.90;;;;;;4992319;28;20050;-82
2023/04/23 11:13:53;;;;;;;10.37;4.53;;;17.60;99.90;;;;;;4992629;28;20058;-82
2023/04/23 11:16:39;;;;;;;8.48;3.95;;;17.90;99.90;;;;;;4978559;28;20058;-83
2023/04/23 11:19:25;;;;;;;9.43;3.95;;;18.10;99.90;;;;;;4978362;28;20061;-84
2023/04/23 11:22:19;;;;;;;9.05;2.47;;;18.10;99.90;;;;;;4991729;28;20054;-83
2023/04/23 11:25:11;;;;;;;9.20;2.85;;;18.20;99.90;;;;;;4991658;28;20542;-82
2023/04/23 11:27:57;;;;;;;6.63;2.83;;;18.50;99.90;;;;;;4992125;28;20516;-81
2023/04/23 11:30:49;;;;;;;8.80;2.70;;;18.60;99.90;;;;;;4975549;28;20073;-82
2023/04/23 11:33:37;;;;;;;7.28;2.70;;;19.10;99.90;;;;;;4974671;28;20061;-83
2023/04/23 11:36:24;;;;;;;9.13;2.80;;;18.80;98.90;;;;;;4974702;28;20096;-82
2023/04/23 11:39:11;;;;;;;7.85;2.47;;;18.60;99.40;;;;;;4992825;28;20061;-84
2023/04/23 11:42:02;;;;;;;8.48;2.10;;;18.80;99.50;;;;;;4975891;28;20046;-82
2023/04/23 11:44:48;;;;;;;7.20;2.10;;;19.00;98.60;;;;;;4974242;28;20141;-81
2023/04/23 11:47:34;;;;;;;5.75;1.98;;;18.60;98.50;;;;;;4974566;28;20050;-83
2023/04/23 11:50:29;;;;;;;8.27;2.05;;;18.40;98.10;;;;;;4974097;28;20557;-81
2023/04/23 11:53:15;;;;;;;6.75;2.17;;;18.20;98.80;;;;;;4962115;28;20066;-83
2023/04/23 11:56:04;;;;;;;9.63;2.55;;;18.40;99.00;;;;;;4975878;28;20064;-81
2023/04/23 11:59:02;;;;;;;6.70;2.05;;;18.40;99.50;;;;;;4975774;28;20136;-83
2023/04/23 12:01:50;;;;;;;7.25;1.95;;;19.10;99.90;;;;;;4975633;28;20135;-83
2023/04/23 12:04:36;;;;;;;7.57;2.08;;;19.10;97.80;;;;;;4975579;28;20046;-82
2023/04/23 12:07:31;;;;;;;7.03;2.17;;;19.40;97.40;;;;;;4961776;28;20053;-83
2023/04/23 12:10:21;;;;;;;5.60;1.88;;;19.90;96.90;;;;;;4992618;28;20057;-82
2023/04/23 12:13:15;;;;;;;6.55;2.35;;;20.10;96.10;;;;;;4974226;28;20113;-82
2023/04/23 12:16:03;;;;;;;8.75;2.58;;;20.00;94.20;;;;;;4975426;28;20058;-82
2023/04/23 12:18:52;;;;;;;5.63;2.63;;;20.00;95.40;;;;;;4975548;28;20854;-82
2023/04/23 12:21:59;;;;;;;9.40;2.28;;;19.80;95.50;;;;;;4975633;28;20681;-84
2023/04/23 12:24:53;;;;;;;6.55;2.40;;;20.00;95.10;;;;;;4973563;28;20070;-83
2023/04/23 12:27:41;;;;;;;5.50;1.73;;;20.10;94.80;;;;;;5005660;28;20469;-82
2023/04/23 12:30:32;;;;;;;7.50;1.88;;;20.20;94.10;;;;;;4994238;28;20173;-83
2023/04/23 12:33:19;;;;;;;7.32;1.77;;;20.80;93.60;;;;;;5011052;28;20046;-82
2023/04/23 12:36:10;;;;;;;6.75;1.75;;;21.10;93.10;;;;;;4993920;28;20062;-82
2023/04/23 12:39:23;;;;;;;7.93;1.92;;;20.80;92.30;;;;;;4994114;28;20128;-84
2023/04/23 12:42:09;;;;;;;5.35;1.52;;;20.80;92.30;;;;;;4994312;28;20054;-83
2023/04/23 12:45:06;;;;;;;8.88;2.92;;;20.70;93.20;;;;;;4993054;28;20502;-82
2023/04/23 12:47:52;;;;;;;6.28;1.38;;;20.70;93.40;;;;;;4993735;28;20050;-83
2023/04/23 12:50:39;;;;;;;6.18;1.48;;;20.80;91.90;;;;;;4997172;28;20149;-82
2023/04/23 12:53:25;;;;;;;7.45;1.50;;;21.00;91.70;;;;;;5010646;28;20104;-82
2023/04/23 12:56:11;;;;;;;7.38;1.73;;;21.00;92.10;;;;;;4991811;28;20151;-81
2023/04/23 12:59:00;;;;;;;7.57;1.50;;;21.00;91.70;;;;;;4991765;28;20060;-81
2023/04/23 13:01:47;;;;;;;5.47;1.60;;;20.70;91.50;;;;;;4991654;28;20089;-83
2023/04/23 13:04:35;;;;;;;7.30;1.92;;;20.70;92.00;;;;;;4994512;28;20053;-84
2023/04/23 13:07:21;;;;;;;8.60;1.73;;;20.80;90.90;;;;;;5010662;28;20057;-82
2023/04/23 13:10:07;;;;;;;8.63;2.10;;;20.90;91.00;;;;;;4979260;28;20567;-83
2023/04/23 13:12:53;;;;;;;9.05;1.92;;;21.20;89.70;;;;;;4993800;28;20520;-84
2023/04/23 13:15:40;;;;;;;5.18;1.20;;;20.60;87.70;;;;;;4992508;28;20054;-84
2023/04/23 13:18:27;;;;;;;5.93;1.52;;;20.70;88.70;;;;;;4992665;28;20053;-84
2023/04/23 13:21:13;;;;;;;6.45;1.63;;;20.80;90.00;;;;;;4980737;28;20149;-83
2023/04/23 13:23:59;;;;;;;3.80;1.20;;;20.80;90.50;;;;;;4992068;28;20050;-83
2023/04/23 13:26:45;;;;;;;11.05;1.70;;;20.60;90.60;;;;;;4974438;28;20058;-84
2023/04/23 13:29:31;;;;;;;5.22;1.85;;;20.40;90.00;;;;;;4974552;28;20111;-82
2023/04/23 13:32:17;;;;;;;5.93;1.65;;;20.30;90.50;;;;;;4973567;28;20058;-81
2023/04/23 13:35:03;;;;;;;5.95;1.27;;;20.30;91.20;;;;;;4973926;28;20450;-82
2023/04/23 13:37:50;;;;;;;4.22;1.13;;;20.60;90.30;;;;;;4972905;28;20075;-81
2023/04/23 13:40:36;;;;;;;7.95;1.55;;;20.90;89.40;;;;;;4973673;28;20531;-82
2023/04/23 13:43:22;;;;;;;5.85;1.67;;;21.40;88.40;;;;;;4991852;28;20157;-83
2023/04/23 13:46:09;;;;;;;6.75;1.30;;;21.80;88.50;;;;;;4973743;28;20465;-83
2023/04/23 13:48:55;;;;;;;4.07;1.20;;;22.10;85.10;;;;;;4960965;28;20061;-84
2023/04/23 13:51:41;;;;;;;8.13;1.65;;;21.80;84.20;;;;;;4973143;28;20096;-83
2023/04/23 13:54:28;;;;;;;7.05;1.23;;;21.50;84.30;;;;;;4990893;28;20054;-82
2023/04/23 13:57:14;;;;;;;8.07;1.70;;;21.30;83.70;;;;;;4977145;28;20060;-81
2023/04/23 14:00:00;;;;;;;7.95;1.27;;;20.90;82.70;;;;;;4959132;28;20439;-81
2023/04/23 14:02:46;;;;;;;5.55;1.33;;;20.90;84.30;;;;;;4990223;28;20054;-82
2023/04/23 14:05:32;;;;;;;6.63;1.10;;;21.00;84.50;;;;;;4974247;28;20522;-83
2023/04/23 14:08:18;;;;;;;6.85;1.50;;;21.10;83.40;;;;;;4973907;28;20159;-84
2023/04/23 14:11:04;;;;;;;6.45;1.27;;;21.10;80.60;;;;;;4991429;28;20054;-83
2023/04/23 14:13:50;;;;;;;6.55;1.10;;;20.90;81.90;;;;;;4960935;28;20053;-82